Time;durP1;ratioP1;P1;durP2;ratioP2;P2;SDS_P1;SDS_P2;PMS_P1;PMS_P2;Temp;Humidity;BMP_temperature;BMP_pressure;BME280_temperature;BME280_humidity;BME280_pressure;Samples;Min_cycle;Max_cycle;Signal;HPM_P1;HPM_P2
2021/07/29 00:00:07;;;;;;;5.10;4.60;;;17.40;99.90;;;;;;6159849;23;20632;-72
2021/07/29 00:02:36;;;;;;;6.10;4.63;;;17.40;99.90;;;;;;6186561;23;20487;-72
2021/07/29 00:05:05;;;;;;;5.20;3.77;;;17.40;99.90;;;;;;6159848;23;20926;-72
2021/07/29 00:07:34;;;;;;;6.80;4.40;;;17.40;99.90;;;;;;6196135;23;20414;-72
2021/07/29 00:10:03;;;;;;;6.53;4.70;;;17.30;99.90;;;;;;6196512;23;20427;-72
2021/07/29 00:12:31;;;;;;;5.23;4.73;;;17.30;99.90;;;;;;6159750;23;20824;-73
2021/07/29 00:15:00;;;;;;;7.47;5.40;;;17.30;99.90;;;;;;6159571;23;20407;-72
2021/07/29 00:17:29;;;;;;;5.82;4.70;;;17.30;99.90;;;;;;6160559;23;20814;-72
2021/07/29 00:19:57;;;;;;;5.73;5.23;;;17.30;99.90;;;;;;6196468;23;20164;-72
2021/07/29 00:22:25;;;;;;;4.73;4.30;;;17.30;99.90;;;;;;6159473;23;20494;-72
2021/07/29 00:24:55;;;;;;;6.03;5.40;;;17.20;99.90;;;;;;6194461;23;20411;-72
2021/07/29 00:27:23;;;;;;;6.03;5.30;;;17.30;99.90;;;;;;6159719;23;20572;-72
2021/07/29 00:29:56;;;;;;;6.13;5.40;;;17.30;99.90;;;;;;6159595;23;20796;-72
2021/07/29 00:32:24;;;;;;;5.83;5.30;;;17.30;99.90;;;;;;6196312;23;20489;-72
2021/07/29 00:34:52;;;;;;;8.53;4.97;;;17.20;99.90;;;;;;6159645;23;20399;-72
2021/07/29 00:37:20;;;;;;;4.67;4.27;;;17.20;99.90;;;;;;6159475;23;20902;-72
2021/07/29 00:39:48;;;;;;;9.77;5.50;;;17.10;99.90;;;;;;6159533;23;20477;-72
2021/07/29 00:42:18;;;;;;;5.93;5.40;;;17.10;99.90;;;;;;6159534;23;20446;-72
2021/07/29 00:44:46;;;;;;;7.37;5.47;;;17.10;99.90;;;;;;6158990;23;20490;-72
2021/07/29 00:47:17;;;;;;;4.60;4.20;;;17.10;99.90;;;;;;6195676;23;20418;-72
2021/07/29 00:49:46;;;;;;;6.97;4.33;;;17.10;99.90;;;;;;6196265;23;20176;-72
2021/07/29 00:52:14;;;;;;;5.53;4.77;;;17.00;99.90;;;;;;6159394;23;20519;-72
2021/07/29 00:54:43;;;;;;;5.93;5.30;;;17.00;99.90;;;;;;6196506;23;20430;-72
2021/07/29 00:57:12;;;;;;;8.83;4.60;;;17.00;99.90;;;;;;6195696;23;20454;-72
2021/07/29 00:59:42;;;;;;;4.87;4.47;;;17.00;99.90;;;;;;6196169;23;20457;-72
2021/07/29 01:02:11;;;;;;;5.30;4.53;;;17.00;99.90;;;;;;6195545;23;20423;-72
2021/07/29 01:04:39;;;;;;;5.10;4.60;;;16.90;99.90;;;;;;6195633;23;20431;-73
2021/07/29 01:07:07;;;;;;;6.47;4.67;;;16.90;99.90;;;;;;6159280;23;20443;-72
2021/07/29 01:09:35;;;;;;;6.40;5.30;;;16.90;99.90;;;;;;6159370;23;20454;-72
2021/07/29 01:12:05;;;;;;;5.90;4.70;;;16.90;99.90;;;;;;6159835;23;20428;-72
2021/07/29 01:14:33;;;;;;;4.53;4.10;;;16.90;99.90;;;;;;6159084;23;20469;-73
2021/07/29 01:17:04;;;;;;;4.30;4.00;;;16.90;99.90;;;;;;6195728;23;20421;-72
2021/07/29 01:19:33;;;;;;;4.60;4.10;;;16.80;99.90;;;;;;6158848;23;20482;-73
2021/07/29 01:22:02;;;;;;;5.97;5.03;;;16.80;99.90;;;;;;6195580;23;20451;-72
2021/07/29 01:24:31;;;;;;;5.47;4.97;;;16.80;99.90;;;;;;6194473;23;20811;-72
2021/07/29 01:26:59;;;;;;;4.70;4.20;;;16.90;99.90;;;;;;6159348;23;20267;-72
2021/07/29 01:29:27;;;;;;;4.97;3.90;;;16.90;99.90;;;;;;6159175;23;20423;-72
2021/07/29 01:31:55;;;;;;;4.33;3.93;;;16.80;99.90;;;;;;6185891;23;20464;-72
2021/07/29 01:34:23;;;;;;;7.00;4.43;;;16.80;99.90;;;;;;6195803;23;20487;-72
2021/07/29 01:36:51;;;;;;;4.97;4.23;;;16.80;99.90;;;;;;6159194;23;20451;-72
2021/07/29 01:39:21;;;;;;;5.07;4.10;;;16.70;99.90;;;;;;6159223;23;20412;-72
2021/07/29 01:41:49;;;;;;;4.33;4.00;;;16.70;99.90;;;;;;6185655;23;20459;-73
2021/07/29 01:44:17;;;;;;;6.10;4.37;;;16.70;99.90;;;;;;6159128;23;20435;-72
2021/07/29 01:46:45;;;;;;;7.00;4.10;;;16.70;99.90;;;;;;6195490;23;20449;-72
2021/07/29 01:49:19;;;;;;;6.07;4.90;;;16.70;99.90;;;;;;6194245;23;20402;-72
2021/07/29 01:51:47;;;;;;;4.73;3.90;;;16.70;99.90;;;;;;6195757;23;20188;-72
2021/07/29 01:54:15;;;;;;;5.32;4.82;;;16.70;99.90;;;;;;6194969;23;20395;-72
2021/07/29 01:56:45;;;;;;;4.40;4.00;;;16.80;99.90;;;;;;6154320;23;20188;-72
2021/07/29 01:59:13;;;;;;;5.73;3.77;;;16.70;99.90;;;;;;6165883;23;20376;-72
2021/07/29 02:01:41;;;;;;;6.13;3.60;;;16.70;99.90;;;;;;6165469;23;20450;-72
2021/07/29 02:04:10;;;;;;;5.80;4.13;;;16.70;99.90;;;;;;6154203;23;20437;-72
2021/07/29 02:06:39;;;;;;;4.90;4.27;;;16.70;99.90;;;;;;6154480;23;20416;-72
2021/07/29 02:09:08;;;;;;;5.00;3.97;;;16.60;99.90;;;;;;6155954;23;20474;-72
2021/07/29 02:11:37;;;;;;;5.10;4.20;;;16.60;99.90;;;;;;6165738;23;20387;-72
2021/07/29 02:14:07;;;;;;;11.03;4.40;;;16.60;99.90;;;;;;6165664;23;20429;-72
2021/07/29 02:16:35;;;;;;;4.63;4.23;;;16.60;99.90;;;;;;6154108;23;20394;-72
2021/07/29 02:19:03;;;;;;;6.07;5.20;;;16.60;99.90;;;;;;6154311;23;20395;-72
2021/07/29 02:21:31;;;;;;;5.23;4.67;;;16.60;99.90;;;;;;6157180;23;20231;-72
2021/07/29 02:23:59;;;;;;;4.80;4.40;;;16.60;99.90;;;;;;6155909;23;20739;-72
2021/07/29 02:26:27;;;;;;;5.27;4.77;;;16.60;99.90;;;;;;6167284;23;20161;-72
2021/07/29 02:28:55;;;;;;;4.23;3.80;;;16.60;99.90;;;;;;6167168;23;20407;-72
2021/07/29 02:31:25;;;;;;;4.57;4.17;;;16.60;99.90;;;;;;6167165;23;20447;-72
2021/07/29 02:33:53;;;;;;;4.07;3.77;;;16.50;99.90;;;;;;6155673;23;20417;-72
2021/07/29 02:36:21;;;;;;;5.93;4.00;;;16.50;99.90;;;;;;6166996;23;20371;-72
2021/07/29 02:38:49;;;;;;;4.50;4.10;;;16.50;99.90;;;;;;6167006;23;20400;-72
2021/07/29 02:41:19;;;;;;;4.90;4.07;;;16.50;99.90;;;;;;6157466;23;20387;-72
2021/07/29 02:43:47;;;;;;;6.80;3.90;;;16.50;99.90;;;;;;6155535;23;20953;-72
2021/07/29 02:46:15;;;;;;;4.13;3.63;;;16.50;99.90;;;;;;6155279;23;20457;-72
2021/07/29 02:48:45;;;;;;;4.60;4.03;;;16.50;99.90;;;;;;6167097;23;20839;-73
2021/07/29 02:51:13;;;;;;;5.47;3.95;;;16.50;99.90;;;;;;6166009;23;20467;-72
2021/07/29 02:53:41;;;;;;;4.03;3.37;;;16.50;99.90;;;;;;6166945;23;20617;-72
2021/07/29 02:56:09;;;;;;;5.82;4.10;;;16.60;99.90;;;;;;6157734;23;20412;-72
2021/07/29 02:58:37;;;;;;;4.10;3.70;;;16.60;99.90;;;;;;6197313;23;20157;-72
2021/07/29 03:01:05;;;;;;;7.73;4.43;;;16.60;99.90;;;;;;6197055;23;20503;-72
2021/07/29 03:03:34;;;;;;;7.50;4.10;;;16.50;99.90;;;;;;6196872;23;20392;-72
2021/07/29 03:06:03;;;;;;;4.30;3.90;;;16.50;99.90;;;;;;6196656;23;20435;-72
2021/07/29 03:08:32;;;;;;;5.87;4.33;;;16.50;99.90;;;;;;6160692;23;20511;-72
2021/07/29 03:11:00;;;;;;;5.00;4.00;;;16.50;99.90;;;;;;6160412;23;20466;-72
2021/07/29 03:22:10;;;;;;;6.10;4.00;;;16.40;99.90;;;;;;6186126;23;20421;-72
2021/07/29 03:24:38;;;;;;;3.93;3.50;;;16.50;99.90;;;;;;6196324;23;20189;-72
2021/07/29 03:27:06;;;;;;;4.17;3.87;;;16.50;99.90;;;;;;6196127;23;20374;-72
2021/07/29 03:29:34;;;;;;;7.20;4.33;;;16.50;99.90;;;;;;6159585;23;20422;-72
2021/07/29 03:32:03;;;;;;;5.10;4.07;;;16.50;99.90;;;;;;6196039;23;20420;-72
2021/07/29 03:34:31;;;;;;;5.50;3.70;;;16.50;99.90;;;;;;6159712;23;20390;-72
2021/07/29 03:36:59;;;;;;;5.60;3.20;;;16.50;99.90;;;;;;6196811;23;20379;-72
2021/07/29 03:39:29;;;;;;;4.10;3.80;;;16.50;99.90;;;;;;6159646;23;20429;-72
2021/07/29 03:41:57;;;;;;;4.17;3.70;;;16.50;99.90;;;;;;6159662;23;20431;-72
2021/07/29 03:44:25;;;;;;;3.90;3.50;;;16.50;99.90;;;;;;6196091;23;20400;-72
2021/07/29 03:46:53;;;;;;;5.00;3.10;;;16.50;99.90;;;;;;6160465;23;20478;-72
2021/07/29 03:49:21;;;;;;;6.40;4.50;;;16.50;99.90;;;;;;6195971;23;20453;-72
2021/07/29 03:51:49;;;;;;;6.40;4.20;;;16.50;99.90;;;;;;6159523;23;20450;-72
2021/07/29 03:54:17;;;;;;;5.45;3.45;;;16.60;99.90;;;;;;6158653;23;20908;-72
2021/07/29 03:56:46;;;;;;;6.77;3.60;;;16.60;99.90;;;;;;6196004;23;20161;-73
2021/07/29 03:59:14;;;;;;;3.67;3.38;;;16.60;99.90;;;;;;6195876;23;20476;-72
2021/07/29 04:01:43;;;;;;;10.50;3.60;;;16.60;99.90;;;;;;6196418;23;20674;-72
2021/07/29 04:04:11;;;;;;;6.00;3.50;;;16.70;99.90;;;;;;6195938;23;20400;-73
2021/07/29 04:06:39;;;;;;;4.27;3.70;;;16.60;99.90;;;;;;6159318;23;20827;-73
2021/07/29 04:09:07;;;;;;;4.57;3.73;;;16.60;99.90;;;;;;6159202;23;20502;-72
2021/07/29 04:11:35;;;;;;;3.13;2.80;;;16.60;99.90;;;;;;6195810;23;20501;-73
2021/07/29 04:14:05;;;;;;;4.90;3.70;;;16.60;99.90;;;;;;6159616;23;20415;-72
2021/07/29 04:16:33;;;;;;;3.57;3.20;;;16.60;99.90;;;;;;6195343;23;20400;-72
2021/07/29 04:19:01;;;;;;;3.83;3.23;;;16.60;99.90;;;;;;6159742;23;20418;-73
2021/07/29 04:21:29;;;;;;;3.87;3.17;;;16.60;99.90;;;;;;6195694;23;20441;-72
2021/07/29 04:23:57;;;;;;;4.37;3.33;;;16.60;99.90;;;;;;6159373;23;20413;-73
2021/07/29 04:26:26;;;;;;;4.80;3.40;;;16.60;99.90;;;;;;6195017;23;20394;-73
2021/07/29 04:28:54;;;;;;;4.20;3.33;;;16.70;99.90;;;;;;6185240;23;20507;-72
2021/07/29 04:31:23;;;;;;;7.03;3.77;;;16.70;99.90;;;;;;6194713;23;20448;-72
2021/07/29 04:33:53;;;;;;;5.37;3.63;;;16.80;99.90;;;;;;6159329;23;20400;-72
2021/07/29 04:36:21;;;;;;;4.03;3.33;;;16.80;99.90;;;;;;6195714;23;20490;-72
2021/07/29 04:38:49;;;;;;;5.37;3.63;;;16.80;99.90;;;;;;6196136;23;20436;-73
2021/07/29 04:41:17;;;;;;;3.50;3.13;;;16.70;99.90;;;;;;6196390;23;20419;-72
2021/07/29 04:43:45;;;;;;;5.80;3.50;;;16.70;99.90;;;;;;6198513;23;20406;-72
2021/07/29 04:46:13;;;;;;;4.40;3.30;;;16.70;99.90;;;;;;6161171;23;20436;-72
2021/07/29 04:48:43;;;;;;;7.30;4.00;;;16.70;99.90;;;;;;6195209;23;20866;-72
2021/07/29 04:51:11;;;;;;;4.63;3.43;;;16.70;99.90;;;;;;6196146;23;20405;-72
2021/07/29 04:53:39;;;;;;;5.73;3.37;;;16.70;99.90;;;;;;6195665;23;20400;-72
2021/07/29 04:56:07;;;;;;;6.00;3.33;;;16.80;99.90;;;;;;6159143;23;20441;-73
2021/07/29 04:58:35;;;;;;;6.67;3.50;;;16.80;99.90;;;;;;6195402;23;20370;-73
2021/07/29 05:01:04;;;;;;;4.23;3.77;;;16.80;99.90;;;;;;6193911;23;20407;-73
2021/07/29 05:03:33;;;;;;;5.60;3.20;;;16.90;99.90;;;;;;6194323;23;20945;-72
2021/07/29 05:06:03;;;;;;;6.35;4.25;;;16.90;99.90;;;;;;6191693;23;20465;-73
2021/07/29 05:08:31;;;;;;;8.10;4.97;;;16.90;99.90;;;;;;6155726;23;20204;-73
2021/07/29 05:11:01;;;;;;;6.50;3.93;;;16.90;99.90;;;;;;6194453;23;20462;-73
2021/07/29 05:13:29;;;;;;;4.40;3.50;;;16.90;99.90;;;;;;6159030;23;20784;-73
2021/07/29 05:15:58;;;;;;;4.67;3.50;;;16.90;99.90;;;;;;6159001;23;20698;-72
2021/07/29 05:18:26;;;;;;;3.77;3.33;;;16.90;99.90;;;;;;6195346;23;20430;-73
2021/07/29 05:20:54;;;;;;;4.63;3.60;;;16.90;99.90;;;;;;6185406;23;20514;-72
2021/07/29 05:23:23;;;;;;;7.60;3.83;;;16.90;99.90;;;;;;6158895;23;20792;-71
2021/07/29 05:25:51;;;;;;;6.60;3.97;;;16.90;99.90;;;;;;6195187;23;20423;-72
2021/07/29 05:28:19;;;;;;;7.00;3.70;;;16.90;99.90;;;;;;6158905;23;20498;-73
2021/07/29 05:30:47;;;;;;;4.33;3.87;;;17.00;99.90;;;;;;6195077;23;20518;-72
2021/07/29 05:33:15;;;;;;;11.90;4.63;;;17.00;99.90;;;;;;6195503;23;20499;-72
2021/07/29 05:35:44;;;;;;;3.87;3.43;;;17.00;99.90;;;;;;6195465;23;20862;-72
2021/07/29 05:38:12;;;;;;;5.32;3.40;;;17.00;99.90;;;;;;6157465;23;20419;-72
2021/07/29 05:40:41;;;;;;;4.53;2.93;;;17.10;99.90;;;;;;6195558;23;20172;-72
2021/07/29 05:43:09;;;;;;;5.63;3.43;;;17.10;99.90;;;;;;6158777;23;20443;-72
2021/07/29 05:45:37;;;;;;;4.83;3.33;;;17.10;99.90;;;;;;6195696;23;20402;-72
2021/07/29 05:48:06;;;;;;;5.67;3.50;;;17.20;99.90;;;;;;6195464;23;20431;-71
2021/07/29 05:50:34;;;;;;;5.03;3.17;;;17.20;99.90;;;;;;6184985;23;20490;-71
2021/07/29 05:53:02;;;;;;;6.43;3.20;;;17.30;99.90;;;;;;6195275;23;20423;-71
2021/07/29 05:55:31;;;;;;;4.37;3.10;;;17.40;99.90;;;;;;6187765;23;20786;-71
2021/07/29 05:58:01;;;;;;;5.23;3.67;;;17.60;99.90;;;;;;6197701;23;20435;-71
2021/07/29 06:00:29;;;;;;;5.33;3.70;;;17.70;99.90;;;;;;6186904;23;20400;-71
2021/07/29 06:03:00;;;;;;;7.47;3.50;;;17.90;99.90;;;;;;6197879;23;20485;-72
2021/07/29 06:05:28;;;;;;;7.03;3.40;;;18.00;99.90;;;;;;6161556;23;20502;-72
2021/07/29 06:07:56;;;;;;;7.17;3.60;;;18.30;99.90;;;;;;6197261;23;20428;-72
2021/07/29 06:10:25;;;;;;;4.90;2.93;;;18.40;99.90;;;;;;6196491;23;20403;-72
2021/07/29 06:12:53;;;;;;;6.33;3.27;;;18.60;99.90;;;;;;6196908;23;20400;-72
2021/07/29 06:15:23;;;;;;;5.60;3.83;;;18.80;99.90;;;;;;6196911;23;20466;-72
2021/07/29 06:17:55;;;;;;;3.87;3.17;;;18.80;99.90;;;;;;6197214;23;20400;-72
2021/07/29 06:20:23;;;;;;;4.87;3.87;;;18.90;99.90;;;;;;6160596;23;20451;-72
2021/07/29 06:22:51;;;;;;;4.00;3.20;;;18.90;99.90;;;;;;6186629;23;20459;-72
2021/07/29 06:25:20;;;;;;;4.53;3.43;;;18.90;99.90;;;;;;6187114;23;20414;-71
2021/07/29 06:27:49;;;;;;;5.07;3.97;;;19.00;99.90;;;;;;6197612;23;20459;-72
2021/07/29 06:30:18;;;;;;;5.60;3.57;;;19.00;99.90;;;;;;6196813;23;20395;-72
2021/07/29 06:32:47;;;;;;;3.70;3.17;;;19.00;99.90;;;;;;6196783;23;20415;-72
2021/07/29 06:35:15;;;;;;;7.75;4.00;;;19.00;99.90;;;;;;6196348;23;20868;-72
2021/07/29 06:37:43;;;;;;;5.47;3.50;;;19.10;99.90;;;;;;6197020;23;20165;-72
2021/07/29 06:40:12;;;;;;;6.13;2.83;;;19.30;99.90;;;;;;6160304;23;20816;-71
2021/07/29 06:42:40;;;;;;;5.10;3.30;;;19.50;99.90;;;;;;6160205;23;21017;-71
2021/07/29 06:45:09;;;;;;;6.67;3.33;;;19.60;99.90;;;;;;6160287;23;20430;-72
2021/07/29 06:47:37;;;;;;;5.73;3.30;;;19.80;99.90;;;;;;6196810;23;20428;-72
2021/07/29 06:50:08;;;;;;;3.80;3.20;;;19.70;99.90;;;;;;6197053;23;20487;-72
2021/07/29 06:52:36;;;;;;;4.37;3.30;;;19.80;99.90;;;;;;6197107;23;20416;-72
2021/07/29 06:55:06;;;;;;;5.13;3.07;;;19.80;99.90;;;;;;6197047;23;20400;-71
2021/07/29 06:57:34;;;;;;;4.47;3.40;;;19.90;99.90;;;;;;6160214;23;20440;-72
2021/07/29 07:00:02;;;;;;;5.23;3.80;;;20.00;99.90;;;;;;6196490;23;20473;-72
2021/07/29 07:02:30;;;;;;;6.57;3.90;;;20.10;99.90;;;;;;6196885;23;20428;-72
2021/07/29 07:04:59;;;;;;;5.13;3.40;;;20.20;99.80;;;;;;6159831;23;20438;-72
2021/07/29 07:07:28;;;;;;;3.20;2.67;;;20.30;99.50;;;;;;6196329;23;20216;-72
2021/07/29 07:09:57;;;;;;;3.60;2.50;;;20.40;99.40;;;;;;6196452;23;20883;-72
2021/07/29 07:12:25;;;;;;;3.63;2.53;;;20.50;99.30;;;;;;6196339;23;20808;-72
2021/07/29 07:14:53;;;;;;;3.00;2.67;;;20.70;99.30;;;;;;6196349;23;20410;-72
2021/07/29 07:17:21;;;;;;;4.50;3.20;;;20.80;99.10;;;;;;6160060;23;20420;-72
2021/07/29 07:19:51;;;;;;;6.27;3.03;;;20.90;98.90;;;;;;6196261;23;20874;-72
2021/07/29 07:22:19;;;;;;;4.83;2.20;;;21.00;98.70;;;;;;6176028;23;20494;-72
2021/07/29 07:24:49;;;;;;;3.77;2.67;;;21.10;98.50;;;;;;6184723;23;20404;-73
2021/07/29 07:27:17;;;;;;;3.50;2.20;;;21.20;98.70;;;;;;6196881;23;20467;-72
2021/07/29 07:29:45;;;;;;;2.60;2.20;;;21.40;98.10;;;;;;6196287;23;20428;-72
2021/07/29 07:32:13;;;;;;;5.07;2.43;;;21.40;97.70;;;;;;6184656;23;20475;-72
2021/07/29 07:34:41;;;;;;;3.37;2.77;;;21.40;97.50;;;;;;6184626;23;20444;-72
2021/07/29 07:37:09;;;;;;;3.17;2.38;;;21.50;97.50;;;;;;6185093;23;20419;-71
2021/07/29 07:39:37;;;;;;;3.33;2.60;;;21.60;96.80;;;;;;6184917;23;20291;-73
2021/07/29 07:42:07;;;;;;;5.05;2.40;;;21.70;96.90;;;;;;6183459;23;20506;-72
2021/07/29 07:44:35;;;;;;;12.40;3.53;;;21.80;96.00;;;;;;6186454;23;20173;-72
2021/07/29 07:47:03;;;;;;;2.20;1.83;;;21.80;96.20;;;;;;6184452;23;20747;-72
2021/07/29 07:49:33;;;;;;;4.60;2.17;;;21.80;96.20;;;;;;6196456;23;20399;-72
2021/07/29 07:52:01;;;;;;;3.33;1.93;;;21.90;96.10;;;;;;6195923;23;20474;-71
2021/07/29 07:54:29;;;;;;;5.70;1.97;;;22.00;96.20;;;;;;6186320;23;20438;-72
2021/07/29 07:56:57;;;;;;;5.00;2.10;;;22.00;96.10;;;;;;6196310;23;20400;-71
2021/07/29 07:59:27;;;;;;;2.73;1.73;;;22.10;95.70;;;;;;6184574;23;20443;-72
2021/07/29 08:01:55;;;;;;;5.93;2.40;;;22.10;95.60;;;;;;6195886;23;20506;-72
2021/07/29 08:04:23;;;;;;;5.80;2.20;;;22.10;95.70;;;;;;6196356;23;20400;-71
2021/07/29 08:06:51;;;;;;;3.55;1.90;;;22.10;95.60;;;;;;6194885;23;20407;-72
2021/07/29 08:09:19;;;;;;;2.90;1.67;;;22.30;94.80;;;;;;6184828;23;20173;-71
2021/07/29 08:11:47;;;;;;;4.07;2.00;;;22.40;94.80;;;;;;6195104;23;20478;-72
2021/07/29 08:14:15;;;;;;;5.00;2.33;;;22.30;94.10;;;;;;6185837;23;20411;-72
2021/07/29 08:16:45;;;;;;;4.50;2.20;;;22.20;94.20;;;;;;6185710;23;20787;-72
2021/07/29 08:19:13;;;;;;;5.77;2.30;;;22.10;94.40;;;;;;6195980;23;20771;-71
2021/07/29 08:21:41;;;;;;;2.70;2.50;;;22.00;94.40;;;;;;6195878;23;20467;-72
2021/07/29 08:24:11;;;;;;;3.80;2.20;;;22.00;94.50;;;;;;6195754;23;20439;-71
2021/07/29 08:26:39;;;;;;;2.57;1.87;;;22.10;94.60;;;;;;6159399;23;20890;-72
2021/07/29 08:29:07;;;;;;;2.70;2.00;;;22.10;94.40;;;;;;6159123;23;20442;-71
2021/07/29 08:31:35;;;;;;;2.07;1.70;;;22.20;94.40;;;;;;6196190;23;20740;-72
2021/07/29 08:34:05;;;;;;;4.40;2.00;;;22.20;94.30;;;;;;6159431;23;20457;-71
2021/07/29 08:36:33;;;;;;;3.27;2.00;;;22.20;93.80;;;;;;6195635;23;20248;-71
2021/07/29 08:39:01;;;;;;;2.77;2.40;;;22.20;93.70;;;;;;6196240;23;20776;-72
2021/07/29 08:41:29;;;;;;;5.85;2.30;;;22.00;93.70;;;;;;6194114;23;20442;-71
2021/07/29 08:43:58;;;;;;;3.63;2.07;;;22.00;92.30;;;;;;6159218;23;20177;-72
2021/07/29 08:46:26;;;;;;;2.90;2.47;;;21.90;92.60;;;;;;6159138;23;20418;-72
2021/07/29 08:48:54;;;;;;;3.50;2.00;;;21.90;93.00;;;;;;6195433;23;20501;-71
2021/07/29 08:51:26;;;;;;;3.30;2.23;;;21.80;93.50;;;;;;6195813;23;20423;-72
2021/07/29 08:53:57;;;;;;;3.07;2.33;;;21.80;93.70;;;;;;6195880;23;20395;-72
2021/07/29 08:56:26;;;;;;;2.60;2.20;;;21.80;93.50;;;;;;6196091;23;20376;-72
2021/07/29 08:58:54;;;;;;;2.50;2.30;;;21.70;93.50;;;;;;6195772;23;20395;-72
2021/07/29 09:01:42;;;;;;;4.70;2.40;;;21.60;93.50;;;;;;6195470;23;20801;-71
2021/07/29 09:04:14;;;;;;;4.33;2.33;;;21.50;93.40;;;;;;6195787;23;20467;-72
2021/07/29 09:06:57;;;;;;;3.03;2.20;;;21.40;93.30;;;;;;6195734;23;20383;-72
2021/07/29 09:09:41;;;;;;;4.90;2.80;;;21.30;93.30;;;;;;6194235;23;20411;-72
2021/07/29 09:12:17;;;;;;;5.00;2.33;;;21.30;93.40;;;;;;6158926;23;20192;-73
2021/07/29 09:14:47;;;;;;;4.10;2.67;;;21.30;93.40;;;;;;6195895;23;20391;-72
2021/07/29 09:17:15;;;;;;;3.17;2.70;;;21.30;93.40;;;;;;6195601;23;20392;-73
2021/07/29 09:19:45;;;;;;;4.20;2.47;;;21.40;93.50;;;;;;6195287;23;20403;-72
2021/07/29 09:22:19;;;;;;;4.83;2.47;;;21.40;93.40;;;;;;6185241;23;20440;-72
2021/07/29 09:25:12;;;;;;;4.33;2.50;;;21.40;93.20;;;;;;6195875;23;20411;-73
2021/07/29 09:27:46;;;;;;;4.23;2.07;;;21.30;92.90;;;;;;6195278;23;20408;-72
2021/07/29 09:30:21;;;;;;;2.85;2.28;;;21.30;93.30;;;;;;6195029;23;20465;-72
2021/07/29 09:32:58;;;;;;;4.03;2.47;;;21.40;93.00;;;;;;6195100;23;20239;-72
2021/07/29 09:35:39;;;;;;;4.80;2.40;;;21.50;92.80;;;;;;6195612;23;20416;-73
2021/07/29 09:38:19;;;;;;;3.27;2.13;;;21.50;92.60;;;;;;6195520;23;20372;-72
2021/07/29 09:40:50;;;;;;;4.27;2.00;;;21.50;92.60;;;;;;6195411;23;20384;-72
2021/07/29 09:43:20;;;;;;;2.80;1.70;;;21.60;92.60;;;;;;6195534;23;20414;-71
2021/07/29 09:45:50;;;;;;;3.60;2.40;;;21.70;92.50;;;;;;6195379;23;20928;-72
2021/07/29 09:48:21;;;;;;;3.33;2.10;;;21.70;92.50;;;;;;6195190;23;20434;-72
2021/07/29 09:50:51;;;;;;;3.97;2.03;;;21.60;92.40;;;;;;6158769;23;20436;-72
2021/07/29 09:53:22;;;;;;;3.90;1.80;;;21.60;92.30;;;;;;6158697;23;20410;-72
2021/07/29 09:55:51;;;;;;;2.70;1.90;;;21.60;92.40;;;;;;6186069;23;20396;-72
2021/07/29 09:58:19;;;;;;;4.68;2.58;;;21.60;92.40;;;;;;6184741;23;20889;-72
2021/07/29 10:00:47;;;;;;;3.50;2.07;;;21.70;92.20;;;;;;6194951;23;20188;-72
2021/07/29 10:03:16;;;;;;;3.10;2.00;;;21.70;92.00;;;;;;6194993;23;20434;-72
2021/07/29 10:05:51;;;;;;;3.40;1.90;;;21.80;91.80;;;;;;6195367;23;20692;-72
2021/07/29 10:08:29;;;;;;;3.80;2.50;;;21.70;91.50;;;;;;6195333;23;20458;-72
2021/07/29 10:10:59;;;;;;;3.80;2.20;;;21.60;91.40;;;;;;6158876;23;20482;-72
2021/07/29 10:13:34;;;;;;;2.70;1.70;;;21.60;91.50;;;;;;6185330;23;20416;-72
2021/07/29 10:16:03;;;;;;;3.97;2.40;;;21.50;91.30;;;;;;6195594;23;20411;-72
2021/07/29 10:19:06;;;;;;;3.33;2.20;;;21.50;91.40;;;;;;6195366;23;20384;-72
2021/07/29 10:21:36;;;;;;;4.27;2.20;;;21.40;91.30;;;;;;6194836;23;20980;-73
2021/07/29 10:24:07;;;;;;;2.60;2.03;;;21.40;91.40;;;;;;6158610;23;20791;-72
2021/07/29 10:26:36;;;;;;;3.17;1.90;;;21.50;91.50;;;;;;6195352;23;20496;-72
2021/07/29 10:29:27;;;;;;;3.73;1.83;;;21.70;91.50;;;;;;6158314;23;20766;-72
2021/07/29 10:31:57;;;;;;;4.85;2.60;;;21.80;91.50;;;;;;6193834;23;20466;-72
2021/07/29 10:34:28;;;;;;;4.23;2.70;;;21.90;91.30;;;;;;6195250;23;20603;-72
2021/07/29 10:36:57;;;;;;;7.07;2.77;;;21.90;91.10;;;;;;6158517;23;20755;-72
2021/07/29 10:39:27;;;;;;;3.40;2.87;;;21.80;91.00;;;;;;6195835;23;20954;-72
2021/07/29 10:41:57;;;;;;;2.63;2.23;;;21.70;91.00;;;;;;6196972;23;20424;-72
2021/07/29 10:44:47;;;;;;;4.33;2.30;;;21.60;91.00;;;;;;6186650;23;20891;-72
2021/07/29 10:47:38;;;;;;;4.43;2.20;;;21.60;91.20;;;;;;6187273;23;20415;-72
2021/07/29 10:50:11;;;;;;;3.33;2.60;;;21.70;91.30;;;;;;6197252;23;20415;-72
2021/07/29 10:52:40;;;;;;;4.10;2.67;;;21.70;91.30;;;;;;6159325;23;20443;-72
2021/07/29 10:55:11;;;;;;;4.37;2.70;;;21.70;90.90;;;;;;6186774;23;20403;-72
2021/07/29 10:57:40;;;;;;;3.67;3.37;;;21.60;91.10;;;;;;6196628;23;20391;-73
2021/07/29 11:00:09;;;;;;;5.30;3.23;;;21.40;91.80;;;;;;6187138;23;20400;-73
2021/07/29 11:02:46;;;;;;;7.00;3.50;;;21.10;92.30;;;;;;6196410;23;20412;-73
2021/07/29 11:05:20;;;;;;;6.30;3.97;;;20.80;92.80;;;;;;6196784;23;20392;-73
2021/07/29 11:07:49;;;;;;;7.10;4.00;;;20.70;93.30;;;;;;6196366;23;20455;-73
2021/07/29 11:10:22;;;;;;;5.97;3.90;;;20.60;93.80;;;;;;6196339;23;20459;-73
2021/07/29 11:12:56;;;;;;;4.90;3.90;;;20.50;94.20;;;;;;6196919;23;20392;-73
2021/07/29 11:15:26;;;;;;;4.37;3.40;;;20.50;94.30;;;;;;6196469;23;20427;-72
2021/07/29 11:17:54;;;;;;;4.00;3.30;;;20.50;94.40;;;;;;6196948;23;20443;-72
2021/07/29 11:20:29;;;;;;;6.53;3.80;;;20.40;94.50;;;;;;6160039;23;20414;-72
2021/07/29 11:22:57;;;;;;;5.93;3.50;;;20.30;94.40;;;;;;6196305;23;20799;-72
2021/07/29 11:25:26;;;;;;;4.50;3.97;;;20.30;94.40;;;;;;6196144;23;20409;-72
2021/07/29 11:27:54;;;;;;;3.10;2.80;;;20.30;94.70;;;;;;6160606;23;20907;-72
2021/07/29 11:30:23;;;;;;;6.97;4.30;;;20.30;94.60;;;;;;6160112;23;20844;-72
2021/07/29 11:32:51;;;;;;;4.77;2.87;;;20.20;94.60;;;;;;6159758;23;20531;-72
2021/07/29 11:35:22;;;;;;;6.63;2.93;;;20.30;94.70;;;;;;6196273;23;20432;-73
2021/07/29 11:37:50;;;;;;;3.83;2.80;;;20.30;94.80;;;;;;6197198;23;20399;-72
2021/07/29 11:40:20;;;;;;;4.23;2.60;;;20.50;94.70;;;;;;6196503;23;20476;-72
2021/07/29 11:42:50;;;;;;;5.90;3.23;;;20.60;94.70;;;;;;6159536;23;20510;-72
2021/07/29 11:45:25;;;;;;;2.60;2.33;;;20.70;94.60;;;;;;6159878;23;20804;-72
2021/07/29 11:47:54;;;;;;;5.70;3.00;;;20.80;94.50;;;;;;6158394;23;20418;-72
2021/07/29 11:50:37;;;;;;;3.93;2.70;;;21.00;94.20;;;;;;6159352;23;20463;-72
2021/07/29 11:53:06;;;;;;;3.87;2.63;;;21.10;93.80;;;;;;6195031;23;20395;-72
2021/07/29 11:55:35;;;;;;;5.33;2.70;;;21.10;92.90;;;;;;6196109;23;20400;-72
2021/07/29 11:58:10;;;;;;;4.67;3.20;;;21.10;93.00;;;;;;6159525;23;20503;-72
2021/07/29 12:00:39;;;;;;;8.53;3.43;;;21.00;93.00;;;;;;6159392;23;20407;-72
2021/07/29 12:03:07;;;;;;;3.47;3.23;;;21.00;93.00;;;;;;6195948;23;20477;-72
2021/07/29 12:05:36;;;;;;;5.23;3.03;;;21.00;93.20;;;;;;6186174;23;20411;-72
2021/07/29 12:08:05;;;;;;;4.07;2.80;;;21.10;93.50;;;;;;6196466;23;20394;-72
2021/07/29 12:10:35;;;;;;;4.33;3.00;;;21.20;93.60;;;;;;6159663;23;20493;-72
2021/07/29 12:13:04;;;;;;;4.47;3.08;;;21.20;93.50;;;;;;6195677;23;20774;-73
2021/07/29 12:15:33;;;;;;;6.40;4.50;;;21.20;93.40;;;;;;6159805;23;20256;-72
2021/07/29 12:18:14;;;;;;;7.90;3.50;;;21.30;93.40;;;;;;6195717;23;20403;-72
2021/07/29 12:20:43;;;;;;;6.47;2.70;;;21.30;93.30;;;;;;6158342;23;20407;-72
2021/07/29 12:23:12;;;;;;;6.30;3.07;;;21.40;92.90;;;;;;6159745;23;20259;-72
2021/07/29 12:25:41;;;;;;;4.90;3.40;;;21.40;92.90;;;;;;6195622;23;20405;-72
2021/07/29 12:28:09;;;;;;;2.53;1.30;;;21.40;92.90;;;;;;6159432;23;20439;-71
2021/07/29 12:30:41;;;;;;;1.93;1.33;;;21.20;92.20;;;;;;6195305;23;20478;-72
2021/07/29 12:33:12;;;;;;;2.50;1.20;;;21.10;91.90;;;;;;6186049;23;20898;-72
2021/07/29 12:35:42;;;;;;;1.57;1.47;;;20.90;91.40;;;;;;6195847;23;20480;-72
2021/07/29 12:38:11;;;;;;;2.20;1.60;;;20.80;91.20;;;;;;6196273;23;20406;-72
2021/07/29 12:40:39;;;;;;;2.95;1.70;;;20.60;91.10;;;;;;6195019;23;20405;-72
2021/07/29 12:43:25;;;;;;;2.40;1.90;;;20.60;90.50;;;;;;6186619;23;20173;-72
2021/07/29 12:45:56;;;;;;;1.90;1.50;;;20.60;90.60;;;;;;6195498;23;20388;-72
2021/07/29 12:48:25;;;;;;;1.63;1.53;;;20.60;90.70;;;;;;6195869;23;20381;-71
2021/07/29 12:50:55;;;;;;;2.43;2.17;;;20.70;90.70;;;;;;6185657;23;20460;-72
2021/07/29 12:53:24;;;;;;;2.43;1.67;;;20.80;90.70;;;;;;6158974;23;20412;-71
2021/07/29 12:55:53;;;;;;;2.60;1.50;;;20.90;90.60;;;;;;6195682;23;20392;-72
2021/07/29 12:58:38;;;;;;;1.97;1.53;;;21.00;90.60;;;;;;6195418;23;20420;-72
2021/07/29 13:01:07;;;;;;;3.00;1.93;;;21.10;90.70;;;;;;6158891;23;20530;-71
2021/07/29 13:03:45;;;;;;;4.50;2.50;;;21.20;90.90;;;;;;6195476;23;20494;-71
2021/07/29 13:06:13;;;;;;;3.37;2.63;;;21.40;90.90;;;;;;6159039;23;20408;-71